Aérodrome :
LOGIN :

S'inscrire | Disclaimer

   EN    FR    IT 

 










Légende :    VFR   VFR Marginal   IFR   IFR Intensif   IFR Très Intensif
Visi : 
Plafond : 
>= 8 km
>= 3000ft
5 à 8 km
1000 à 3000 ft
1500m à 5 km
500 à 1000 ft
800 à 1500m
200 à 500 ft
< 800m
< 200 ft
Symboles :   Orages  Brouillard  Fortes neiges  Fortes précipitations  Vent > 20 kt
SIGMETs :   Divers  Orages  Givrage  Turbulence  Onde Orograph.  Cendres Volcan.







- Altitude de l'aérodrome : 538 ft
- Code IATA : TNF
- Voir les cartes d'approche


LFPN - Toussus Le Noble

DERNIER METAR :
  • 180100Z AUTO 23011KT 5000 -DZ BR OVC004 06/06 Q1021

METARs EXPIRÉS :
  • 180030Z AUTO 22010KT 3800 RA BR OVC004 06/06 Q1022
  • 180000Z AUTO 22011KT 4000 -RA BR OVC004 06/05 Q1023
  • 172330Z AUTO 22008KT 4500 -RA BR OVC004 05/05 Q1024
  • 172300Z AUTO 21008KT 2800 -RA BR OVC003/// ///TCU 05/04 Q1024
  • 172230Z AUTO 21008KT 3400 -RA BR OVC003 05/04 Q1024

TAF AMD TAF LFPN
Valide du 17 à 19h jusqu'au 18 à 03h UTC


171905Z 1719/1803 20006KT 9999 BKN008
TEMPO 1719/1720 -RA BKN004
TEMPO 1720/1803 21014G24KT 2000 -RADZ BKN002
ATIS : +33 1 39 56 54 70
Pas de NOTAMs connus pour ce terrain.



MET'MAP, la Météo Aéronautique d'un coup d'oeil ! - Copyright ORBIFLY Décembre 2007 - Disclaimer

ORBIFLY MET'MAP TEAM :

Programmation & Développement : Alexandra Zaïnal
Conception & Développement : Baudouin d'Aumeries
Co-Programmation & Développement : Marc-Olivier Méhu
Soutien technique & logistique : Manuel Goepfert

Contact : metmap@orbifly.com




SOURCES & CREDITS :

   NOAA